Larksville, Pennsylvania
Current Conditions -  °F | °C
As of 2:54 AM on Thursday 27 Nov 2014 (Local Time) from KAVP Reporting Station
Light Snow Light Snow  
Wind Chill: 21°   Ceiling: 1100
Heat Index: 31°   Visibility: 6mi
Dew Point: 26°   Wind: 13mph
Humidity: 82%   Direction: 290°WNW
Pressure: 29.93"   Gusts: NA
Location:  41.2768°N, 75.8997°W
Report Text: KAVP 270754Z AUTO 29011KT 6SM -SN OVC011 M01/M03 A2993 RMK AO2 SNB39 SLP144 P0000 T10061033
Loading
Personal Weather Stations






























Interactive Weather Map New forecast layout! Learn more

10-Day Weather Forecast

Advertisements
Track Severe Weather on mobile